sensor_id;sensor_type;location;lat;lon;timestamp;temperature;humidity
4647;DHT22;2336;47.822;7.564;2022-12-10T04:33:43;0.60;99.90
4647;DHT22;2336;47.822;7.564;2022-12-10T04:36:10;0.60;99.90
4647;DHT22;2336;47.822;7.564;2022-12-10T04:38:37;0.60;99.90
4647;DHT22;2336;47.822;7.564;2022-12-10T04:41:04;0.60;99.90
4647;DHT22;2336;47.822;7.564;2022-12-10T04:43:40;0.60;99.90
4647;DHT22;2336;47.822;7.564;2022-12-10T04:46:08;0.60;99.90
4647;DHT22;2336;47.822;7.564;2022-12-10T04:48:35;0.60;99.90
4647;DHT22;2336;47.822;7.564;2022-12-10T04:51:03;0.60;99.90
4647;DHT22;2336;47.822;7.564;2022-12-10T04:53:30;0.60;99.90
4647;DHT22;2336;47.822;7.564;2022-12-10T04:59:20;0.60;99.90
4647;DHT22;2336;47.822;7.564;2022-12-10T05:01:47;0.60;99.90
4647;DHT22;2336;47.822;7.564;2022-12-10T05:04:15;0.60;99.90
4647;DHT22;2336;47.822;7.564;2022-12-10T05:06:44;0.60;99.90
4647;DHT22;2336;47.822;7.564;2022-12-10T05:09:11;0.60;99.90
4647;DHT22;2336;47.822;7.564;2022-12-10T05:11:39;0.60;99.90
4647;DHT22;2336;47.822;7.564;2022-12-10T05:14:06;0.60;99.90
4647;DHT22;2336;47.822;7.564;2022-12-10T05:16:34;0.60;99.90
4647;DHT22;2336;47.822;7.564;2022-12-10T05:19:01;0.60;99.90
4647;DHT22;2336;47.822;7.564;2022-12-10T05:21:29;0.60;99.90
4647;DHT22;2336;47.822;7.564;2022-12-10T05:24:12;0.60;99.90
4647;DHT22;2336;47.822;7.564;2022-12-10T05:26:39;0.60;99.90
4647;DHT22;2336;47.822;7.564;2022-12-10T05:29:06;0.60;99.90
4647;DHT22;2336;47.822;7.564;2022-12-10T05:31:33;0.60;99.90
4647;DHT22;2336;47.822;7.564;2022-12-10T05:34:00;0.70;99.90
4647;DHT22;2336;47.822;7.564;2022-12-10T05:36:29;0.60;99.90
4647;DHT22;2336;47.822;7.564;2022-12-10T05:38:58;0.60;99.90
4647;DHT22;2336;47.822;7.564;2022-12-10T05:41:28;0.60;99.90
4647;DHT22;2336;47.822;7.564;2022-12-10T05:43:56;0.50;99.90
4647;DHT22;2336;47.822;7.564;2022-12-10T05:46:26;0.50;99.90
4647;DHT22;2336;47.822;7.564;2022-12-10T05:48:53;0.50;99.90
4647;DHT22;2336;47.822;7.564;2022-12-10T05:51:23;0.50;99.90
4647;DHT22;2336;47.822;7.564;2022-12-10T05:53:50;0.50;99.90
4647;DHT22;2336;47.822;7.564;2022-12-10T05:56:20;0.50;99.90
4647;DHT22;2336;47.822;7.564;2022-12-10T15:32:30;0.60;99.90
4647;DHT22;2336;47.822;7.564;2022-12-10T15:34:59;0.50;99.90
4647;DHT22;2336;47.822;7.564;2022-12-10T15:37:31;0.60;99.90
4647;DHT22;2336;47.822;7.564;2022-12-10T15:40:01;0.50;99.90
4647;DHT22;2336;47.822;7.564;2022-12-10T15:42:38;0.50;99.90
4647;DHT22;2336;47.822;7.564;2022-12-10T15:45:17;0.60;99.90
4647;DHT22;2336;47.822;7.564;2022-12-10T15:47:46;0.50;99.90
4647;DHT22;2336;47.822;7.564;2022-12-10T15:50:13;0.50;99.90
4647;DHT22;2336;47.822;7.564;2022-12-10T15:52:40;0.50;99.90
4647;DHT22;2336;47.822;7.564;2022-12-10T15:55:08;0.50;99.90
4647;DHT22;2336;47.822;7.564;2022-12-10T15:57:37;0.50;99.90
4647;DHT22;2336;47.822;7.564;2022-12-10T16:00:08;0.50;99.90
4647;DHT22;2336;47.822;7.564;2022-12-10T16:02:40;0.50;99.90
4647;DHT22;2336;47.822;7.564;2022-12-10T16:05:13;0.50;99.90
4647;DHT22;2336;47.822;7.564;2022-12-10T16:07:40;0.50;99.90
4647;DHT22;2336;47.822;7.564;2022-12-10T16:10:09;0.50;99.90
4647;DHT22;2336;47.822;7.564;2022-12-10T16:12:37;0.50;99.90
4647;DHT22;2336;47.822;7.564;2022-12-10T16:15:05;0.50;99.90
4647;DHT22;2336;47.822;7.564;2022-12-10T16:17:33;0.50;99.90
4647;DHT22;2336;47.822;7.564;2022-12-10T16:20:13;0.50;99.90
4647;DHT22;2336;47.822;7.564;2022-12-10T16:22:41;0.50;99.90
4647;DHT22;2336;47.822;7.564;2022-12-10T16:25:08;0.50;99.90
4647;DHT22;2336;47.822;7.564;2022-12-10T16:27:35;0.50;99.90
4647;DHT22;2336;47.822;7.564;2022-12-10T16:30:14;0.50;99.90
4647;DHT22;2336;47.822;7.564;2022-12-10T16:32:43;0.50;99.90
4647;DHT22;2336;47.822;7.564;2022-12-10T16:35:11;0.40;99.90
4647;DHT22;2336;47.822;7.564;2022-12-10T16:37:41;0.40;99.90
4647;DHT22;2336;47.822;7.564;2022-12-10T16:40:08;0.50;99.90
4647;DHT22;2336;47.822;7.564;2022-12-10T16:42:35;0.40;99.90
4647;DHT22;2336;47.822;7.564;2022-12-10T16:45:05;0.50;99.90
4647;DHT22;2336;47.822;7.564;2022-12-10T16:47:36;0.50;99.90
4647;DHT22;2336;47.822;7.564;2022-12-10T16:50:03;0.50;99.90
4647;DHT22;2336;47.822;7.564;2022-12-10T16:52:32;0.50;99.90
4647;DHT22;2336;47.822;7.564;2022-12-10T16:54:59;0.40;99.90
4647;DHT22;2336;47.822;7.564;2022-12-10T16:57:26;0.50;99.90
4647;DHT22;2336;47.822;7.564;2022-12-10T16:59:53;0.50;99.90
4647;DHT22;2336;47.822;7.564;2022-12-10T17:02:20;0.50;99.90
4647;DHT22;2336;47.822;7.564;2022-12-10T17:04:47;0.40;99.90
4647;DHT22;2336;47.822;7.564;2022-12-10T17:07:14;0.40;99.90
4647;DHT22;2336;47.822;7.564;2022-12-10T17:09:43;0.40;99.90
4647;DHT22;2336;47.822;7.564;2022-12-10T17:12:10;0.40;99.90
4647;DHT22;2336;47.822;7.564;2022-12-10T17:14:39;0.40;99.90
4647;DHT22;2336;47.822;7.564;2022-12-10T17:17:07;0.40;99.90
4647;DHT22;2336;47.822;7.564;2022-12-10T17:19:35;0.40;99.90
4647;DHT22;2336;47.822;7.564;2022-12-10T17:22:02;0.40;99.90
4647;DHT22;2336;47.822;7.564;2022-12-10T17:24:30;0.40;99.90
4647;DHT22;2336;47.822;7.564;2022-12-10T17:27:02;0.40;99.90
4647;DHT22;2336;47.822;7.564;2022-12-10T17:29:31;0.40;99.90
4647;DHT22;2336;47.822;7.564;2022-12-10T17:31:59;0.40;99.90
4647;DHT22;2336;47.822;7.564;2022-12-10T17:34:26;0.40;99.90
4647;DHT22;2336;47.822;7.564;2022-12-10T17:36:53;0.40;99.90
4647;DHT22;2336;47.822;7.564;2022-12-10T17:39:20;0.40;99.90
4647;DHT22;2336;47.822;7.564;2022-12-10T17:41:50;0.40;99.90
4647;DHT22;2336;47.822;7.564;2022-12-10T17:44:19;0.40;99.90
4647;DHT22;2336;47.822;7.564;2022-12-10T17:46:47;0.40;99.90
4647;DHT22;2336;47.822;7.564;2022-12-10T17:49:15;0.40;99.90
4647;DHT22;2336;47.822;7.564;2022-12-10T17:51:42;0.40;99.90
4647;DHT22;2336;47.822;7.564;2022-12-10T17:54:09;0.40;99.90
4647;DHT22;2336;47.822;7.564;2022-12-10T17:56:35;0.40;99.90
4647;DHT22;2336;47.822;7.564;2022-12-10T17:59:03;0.40;99.90
4647;DHT22;2336;47.822;7.564;2022-12-10T18:01:32;0.40;99.90
4647;DHT22;2336;47.822;7.564;2022-12-10T18:03:59;0.40;99.90
4647;DHT22;2336;47.822;7.564;2022-12-10T18:06:27;0.40;99.90
4647;DHT22;2336;47.822;7.564;2022-12-10T18:08:57;0.40;99.90
4647;DHT22;2336;47.822;7.564;2022-12-10T18:11:26;0.40;99.90
4647;DHT22;2336;47.822;7.564;2022-12-10T18:13:53;0.40;99.90
4647;DHT22;2336;47.822;7.564;2022-12-10T18:16:22;0.40;99.90
4647;DHT22;2336;47.822;7.564;2022-12-10T18:18:54;0.40;99.90
4647;DHT22;2336;47.822;7.564;2022-12-10T18:21:21;0.40;99.90
4647;DHT22;2336;47.822;7.564;2022-12-10T18:23:48;0.40;99.90
4647;DHT22;2336;47.822;7.564;2022-12-10T18:26:19;0.40;99.90
4647;DHT22;2336;47.822;7.564;2022-12-10T18:28:51;0.40;99.90
4647;DHT22;2336;47.822;7.564;2022-12-10T18:31:24;0.40;99.90
4647;DHT22;2336;47.822;7.564;2022-12-10T18:33:55;0.40;99.90
4647;DHT22;2336;47.822;7.564;2022-12-10T18:36:26;0.40;99.90
4647;DHT22;2336;47.822;7.564;2022-12-10T18:38:55;0.40;99.90
4647;DHT22;2336;47.822;7.564;2022-12-10T18:41:23;0.40;99.90
4647;DHT22;2336;47.822;7.564;2022-12-10T18:43:50;0.40;99.90
4647;DHT22;2336;47.822;7.564;2022-12-10T18:46:19;0.40;99.90
4647;DHT22;2336;47.822;7.564;2022-12-10T18:48:46;0.30;99.90
4647;DHT22;2336;47.822;7.564;2022-12-10T18:51:15;0.30;99.90
4647;DHT22;2336;47.822;7.564;2022-12-10T18:53:42;0.30;99.90
4647;DHT22;2336;47.822;7.564;2022-12-10T18:56:11;0.30;99.90
4647;DHT22;2336;47.822;7.564;2022-12-10T18:58:39;0.30;99.90
4647;DHT22;2336;47.822;7.564;2022-12-10T19:01:07;0.30;99.90
4647;DHT22;2336;47.822;7.564;2022-12-10T19:03:34;0.30;99.90
4647;DHT22;2336;47.822;7.564;2022-12-10T19:06:01;0.20;99.90
4647;DHT22;2336;47.822;7.564;2022-12-10T19:08:29;0.30;99.90
4647;DHT22;2336;47.822;7.564;2022-12-10T19:10:56;0.20;99.90
4647;DHT22;2336;47.822;7.564;2022-12-10T19:13:23;0.20;99.90
4647;DHT22;2336;47.822;7.564;2022-12-10T19:15:50;0.20;99.90
4647;DHT22;2336;47.822;7.564;2022-12-10T19:18:18;0.20;99.90
4647;DHT22;2336;47.822;7.564;2022-12-10T19:20:45;0.10;99.90
4647;DHT22;2336;47.822;7.564;2022-12-10T19:23:12;0.10;99.90
4647;DHT22;2336;47.822;7.564;2022-12-10T19:25:40;0.10;99.90
4647;DHT22;2336;47.822;7.564;2022-12-10T19:28:08;0.00;99.90
4647;DHT22;2336;47.822;7.564;2022-12-10T19:30:35;0.00;99.90
4647;DHT22;2336;47.822;7.564;2022-12-10T19:33:02;0.00;99.90
4647;DHT22;2336;47.822;7.564;2022-12-10T19:35:29;0.00;99.90
4647;DHT22;2336;47.822;7.564;2022-12-10T19:37:56;-0.10;99.90
4647;DHT22;2336;47.822;7.564;2022-12-10T19:40:29;-0.10;99.90
4647;DHT22;2336;47.822;7.564;2022-12-10T19:42:57;-0.10;99.90
4647;DHT22;2336;47.822;7.564;2022-12-10T19:45:25;-0.10;99.90
4647;DHT22;2336;47.822;7.564;2022-12-10T19:47:52;-0.10;99.90
4647;DHT22;2336;47.822;7.564;2022-12-10T19:50:24;-0.20;99.90
4647;DHT22;2336;47.822;7.564;2022-12-10T19:52:51;-0.20;99.90
4647;DHT22;2336;47.822;7.564;2022-12-10T19:55:19;-0.20;99.90
4647;DHT22;2336;47.822;7.564;2022-12-10T19:57:47;-0.20;99.90
4647;DHT22;2336;47.822;7.564;2022-12-10T20:00:19;-0.20;99.90
4647;DHT22;2336;47.822;7.564;2022-12-10T20:02:46;-0.20;99.90
4647;DHT22;2336;47.822;7.564;2022-12-10T20:05:13;-0.20;99.90
4647;DHT22;2336;47.822;7.564;2022-12-10T20:07:40;-0.20;99.90
4647;DHT22;2336;47.822;7.564;2022-12-10T20:10:17;-0.30;99.90
4647;DHT22;2336;47.822;7.564;2022-12-10T20:12:45;-0.30;99.90
4647;DHT22;2336;47.822;7.564;2022-12-10T20:15:12;-0.30;99.90
4647;DHT22;2336;47.822;7.564;2022-12-10T20:17:41;-0.30;99.90
4647;DHT22;2336;47.822;7.564;2022-12-10T20:20:14;-0.30;99.90
4647;DHT22;2336;47.822;7.564;2022-12-10T20:22:41;-0.40;99.90
4647;DHT22;2336;47.822;7.564;2022-12-10T20:25:08;-0.40;99.90
4647;DHT22;2336;47.822;7.564;2022-12-10T20:27:35;-0.40;99.90
4647;DHT22;2336;47.822;7.564;2022-12-10T20:30:03;-0.50;99.90
4647;DHT22;2336;47.822;7.564;2022-12-10T20:32:31;-0.50;99.90
4647;DHT22;2336;47.822;7.564;2022-12-10T20:34:59;-0.50;99.90
4647;DHT22;2336;47.822;7.564;2022-12-10T20:37:26;-0.50;99.90
4647;DHT22;2336;47.822;7.564;2022-12-10T20:39:54;-0.50;99.90
4647;DHT22;2336;47.822;7.564;2022-12-10T20:42:21;-0.60;99.90
4647;DHT22;2336;47.822;7.564;2022-12-10T20:44:47;-0.60;99.90
4647;DHT22;2336;47.822;7.564;2022-12-10T20:47:14;-0.60;99.90
4647;DHT22;2336;47.822;7.564;2022-12-10T20:49:41;-0.70;99.90
4647;DHT22;2336;47.822;7.564;2022-12-10T20:52:09;-0.60;99.90
4647;DHT22;2336;47.822;7.564;2022-12-10T20:54:36;-0.70;99.90
4647;DHT22;2336;47.822;7.564;2022-12-10T20:57:03;-0.70;99.90
4647;DHT22;2336;47.822;7.564;2022-12-10T20:59:30;-0.70;99.90
4647;DHT22;2336;47.822;7.564;2022-12-10T21:01:59;-0.80;99.90
4647;DHT22;2336;47.822;7.564;2022-12-10T21:04:26;-0.80;99.90
4647;DHT22;2336;47.822;7.564;2022-12-10T21:06:54;-0.90;99.90
4647;DHT22;2336;47.822;7.564;2022-12-10T21:09:22;-0.90;99.90
4647;DHT22;2336;47.822;7.564;2022-12-10T21:11:49;-1.00;99.90
4647;DHT22;2336;47.822;7.564;2022-12-10T21:14:16;-1.10;99.90
4647;DHT22;2336;47.822;7.564;2022-12-10T21:16:43;-1.10;99.90
4647;DHT22;2336;47.822;7.564;2022-12-10T21:19:10;-1.10;99.90
4647;DHT22;2336;47.822;7.564;2022-12-10T21:21:38;-1.10;99.90
4647;DHT22;2336;47.822;7.564;2022-12-10T21:24:05;-1.10;99.90
4647;DHT22;2336;47.822;7.564;2022-12-10T21:26:34;-1.00;99.90
4647;DHT22;2336;47.822;7.564;2022-12-10T21:29:01;-0.90;99.90
